sensor_id;sensor_type;location;lat;lon;timestamp;pressure;altitude;pressure_sealevel;temperature;humidity
76990;BME280;65924;47.250;11.332;2023-07-13T00:01:27;95026.11;;;20.17;88.14
76990;BME280;65924;47.250;11.332;2023-07-13T00:11:28;95044.19;;;20.14;87.91
76990;BME280;65924;47.250;11.332;2023-07-13T00:21:33;95062.65;;;20.09;87.27
76990;BME280;65924;47.250;11.332;2023-07-13T00:31:33;95071.81;;;20.02;86.80
76990;BME280;65924;47.250;11.332;2023-07-13T00:41:35;95070.25;;;19.97;87.07
76990;BME280;65924;47.250;11.332;2023-07-13T00:51:48;95061.89;;;19.92;87.01
76990;BME280;65924;47.250;11.332;2023-07-13T01:01:50;95022.69;;;19.91;87.27
76990;BME280;65924;47.250;11.332;2023-07-13T01:11:51;95010.58;;;19.89;87.16
76990;BME280;65924;47.250;11.332;2023-07-13T01:21:52;94993.34;;;19.89;86.88
76990;BME280;65924;47.250;11.332;2023-07-13T01:31:53;94984.29;;;19.88;87.06
76990;BME280;65924;47.250;11.332;2023-07-13T01:41:53;94986.02;;;19.84;86.96
76990;BME280;65924;47.250;11.332;2023-07-13T01:51:54;94981.27;;;19.82;86.87
76990;BME280;65924;47.250;11.332;2023-07-13T02:01:55;94978.52;;;19.76;86.70
76990;BME280;65924;47.250;11.332;2023-07-13T02:11:55;94974.79;;;19.76;86.76
76990;BME280;65924;47.250;11.332;2023-07-13T02:21:56;94977.00;;;19.72;86.65
76990;BME280;65924;47.250;11.332;2023-07-13T02:31:56;94965.58;;;19.72;86.89
76990;BME280;65924;47.250;11.332;2023-07-13T02:41:59;94946.13;;;19.74;86.85
76990;BME280;65924;47.250;11.332;2023-07-13T02:52:00;94939.70;;;19.73;86.75
76990;BME280;65924;47.250;11.332;2023-07-13T03:02:02;94942.85;;;19.72;87.08
76990;BME280;65924;47.250;11.332;2023-07-13T03:12:03;94941.02;;;19.71;87.24
76990;BME280;65924;47.250;11.332;2023-07-13T03:22:06;94928.38;;;19.69;86.72
76990;BME280;65924;47.250;11.332;2023-07-13T03:32:07;94918.31;;;19.64;86.66
76990;BME280;65924;47.250;11.332;2023-07-13T03:42:08;94938.86;;;19.60;86.48
76990;BME280;65924;47.250;11.332;2023-07-13T03:52:09;94943.88;;;19.53;86.22
76990;BME280;65924;47.250;11.332;2023-07-13T04:02:10;94950.58;;;19.46;86.01
76990;BME280;65924;47.250;11.332;2023-07-13T04:12:11;94959.78;;;19.42;86.08
76990;BME280;65924;47.250;11.332;2023-07-13T04:22:11;94964.47;;;19.34;86.16
76990;BME280;65924;47.250;11.332;2023-07-13T04:32:12;94963.08;;;19.31;86.27
76990;BME280;65924;47.250;11.332;2023-07-13T04:42:12;94972.83;;;19.26;86.31
76990;BME280;65924;47.250;11.332;2023-07-13T04:52:13;94979.27;;;19.27;86.60
76990;BME280;65924;47.250;11.332;2023-07-13T05:02:13;94980.05;;;19.28;86.63
76990;BME280;65924;47.250;11.332;2023-07-13T05:12:14;94990.70;;;19.30;86.57
76990;BME280;65924;47.250;11.332;2023-07-13T05:22:15;94994.67;;;19.30;86.36
76990;BME280;65924;47.250;11.332;2023-07-13T05:32:18;94989.28;;;19.33;86.50
76990;BME280;65924;47.250;11.332;2023-07-13T05:42:18;94990.34;;;19.34;86.69
76990;BME280;65924;47.250;11.332;2023-07-13T05:52:19;95007.38;;;19.38;86.82
76990;BME280;65924;47.250;11.332;2023-07-13T06:02:19;95013.33;;;19.42;86.74
76990;BME280;65924;47.250;11.332;2023-07-13T06:12:20;95015.51;;;19.48;86.65
76990;BME280;65924;47.250;11.332;2023-07-13T06:22:20;95018.61;;;19.52;86.59
76990;BME280;65924;47.250;11.332;2023-07-13T06:32:21;95012.38;;;19.56;86.45
76990;BME280;65924;47.250;11.332;2023-07-13T06:42:22;95009.15;;;19.58;86.57
76990;BME280;65924;47.250;11.332;2023-07-13T06:52:22;95002.79;;;19.59;86.41
76990;BME280;65924;47.250;11.332;2023-07-13T07:02:23;95001.46;;;19.62;86.81
76990;BME280;65924;47.250;11.332;2023-07-13T07:12:23;95013.00;;;19.66;86.42
76990;BME280;65924;47.250;11.332;2023-07-13T07:22:24;95025.05;;;19.68;86.46
76990;BME280;65924;47.250;11.332;2023-07-13T07:32:30;95027.95;;;19.71;86.61
76990;BME280;65924;47.250;11.332;2023-07-13T07:42:31;95031.84;;;19.74;85.93
76990;BME280;65924;47.250;11.332;2023-07-13T07:52:32;95033.47;;;19.75;85.67
76990;BME280;65924;47.250;11.332;2023-07-13T08:02:33;95033.17;;;19.80;86.02
76990;BME280;65924;47.250;11.332;2023-07-13T08:12:35;95034.48;;;19.86;86.53
76990;BME280;65924;47.250;11.332;2023-07-13T08:22:35;95027.13;;;19.93;86.70
76990;BME280;65924;47.250;11.332;2023-07-13T08:32:37;95020.27;;;20.00;86.19
76990;BME280;65924;47.250;11.332;2023-07-13T08:42:58;95019.25;;;20.08;86.59
76990;BME280;65924;47.250;11.332;2023-07-13T08:53:01;95011.94;;;20.18;86.31
76990;BME280;65924;47.250;11.332;2023-07-13T09:03:05;95013.19;;;20.31;85.95
76990;BME280;65924;47.250;11.332;2023-07-13T09:23:26;95014.77;;;20.58;85.18
76990;BME280;65924;47.250;11.332;2023-07-13T09:33:29;95011.55;;;20.66;84.79
76990;BME280;65924;47.250;11.332;2023-07-13T09:43:33;95011.59;;;20.67;83.99
76990;BME280;65924;47.250;11.332;2023-07-13T09:53:34;95015.05;;;20.68;84.63
76990;BME280;65924;47.250;11.332;2023-07-13T10:03:37;95021.08;;;20.67;85.25
76990;BME280;65924;47.250;11.332;2023-07-13T10:13:56;95023.16;;;20.70;86.21
76990;BME280;65924;47.250;11.332;2023-07-13T10:24:05;95035.23;;;20.80;86.15
76990;BME280;65924;47.250;11.332;2023-07-13T10:34:11;95037.59;;;20.95;85.45
76990;BME280;65924;47.250;11.332;2023-07-13T10:44:26;95040.33;;;21.09;85.09
76990;BME280;65924;47.250;11.332;2023-07-13T11:04:46;95026.92;;;21.29;85.34
76990;BME280;65924;47.250;11.332;2023-07-13T11:25:01;95002.70;;;21.77;83.85
76990;BME280;65924;47.250;11.332;2023-07-13T11:35:02;94998.30;;;22.00;82.47
76990;BME280;65924;47.250;11.332;2023-07-13T11:45:19;94995.06;;;22.07;81.07
76990;BME280;65924;47.250;11.332;2023-07-13T11:55:23;95007.42;;;21.99;79.39
76990;BME280;65924;47.250;11.332;2023-07-13T12:05:25;95015.31;;;21.79;77.76
76990;BME280;65924;47.250;11.332;2023-07-13T12:15:37;95018.19;;;21.56;76.72
76990;BME280;65924;47.250;11.332;2023-07-13T12:25:38;95037.33;;;21.36;77.68
76990;BME280;65924;47.250;11.332;2023-07-13T12:35:45;95040.79;;;21.23;79.19
76990;BME280;65924;47.250;11.332;2023-07-13T12:46:02;95050.92;;;21.08;78.87
76990;BME280;65924;47.250;11.332;2023-07-13T12:56:04;95059.72;;;20.96;79.19
76990;BME280;65924;47.250;11.332;2023-07-13T13:06:06;95056.36;;;20.89;79.91
76990;BME280;65924;47.250;11.332;2023-07-13T13:26:26;95058.20;;;20.69;79.35
76990;BME280;65924;47.250;11.332;2023-07-13T13:36:27;95058.70;;;20.61;78.72
76990;BME280;65924;47.250;11.332;2023-07-13T13:46:28;95051.60;;;20.62;78.82
76990;BME280;65924;47.250;11.332;2023-07-13T13:56:30;95046.55;;;20.69;79.55
76990;BME280;65924;47.250;11.332;2023-07-13T14:06:33;95041.23;;;20.80;79.48
76990;BME280;65924;47.250;11.332;2023-07-13T14:16:33;95036.77;;;20.91;79.02
76990;BME280;65924;47.250;11.332;2023-07-13T14:26:40;95037.56;;;21.04;78.88
76990;BME280;65924;47.250;11.332;2023-07-13T14:36:43;95042.13;;;21.15;78.34
76990;BME280;65924;47.250;11.332;2023-07-13T14:46:46;95048.14;;;21.22;78.41
76990;BME280;65924;47.250;11.332;2023-07-13T14:56:47;95057.88;;;21.25;79.27
76990;BME280;65924;47.250;11.332;2023-07-13T15:06:57;95089.49;;;21.25;81.28
76990;BME280;65924;47.250;11.332;2023-07-13T15:16:59;95104.88;;;21.12;82.20
76990;BME280;65924;47.250;11.332;2023-07-13T15:27:00;95114.29;;;20.90;83.21
76990;BME280;65924;47.250;11.332;2023-07-13T15:37:01;95115.54;;;20.72;83.59
76990;BME280;65924;47.250;11.332;2023-07-13T15:47:01;95118.29;;;20.58;83.54
76990;BME280;65924;47.250;11.332;2023-07-13T15:57:03;95117.36;;;20.46;84.40
76990;BME280;65924;47.250;11.332;2023-07-13T16:07:04;95114.30;;;20.40;84.41
76990;BME280;65924;47.250;11.332;2023-07-13T16:17:07;95114.84;;;20.37;85.10
76990;BME280;65924;47.250;11.332;2023-07-13T16:27:11;95110.30;;;20.36;85.24
76990;BME280;65924;47.250;11.332;2023-07-13T16:37:29;95119.34;;;20.37;85.63
76990;BME280;65924;47.250;11.332;2023-07-13T16:47:29;95134.29;;;20.37;85.53
76990;BME280;65924;47.250;11.332;2023-07-13T16:57:32;95141.29;;;20.36;85.88
76990;BME280;65924;47.250;11.332;2023-07-13T17:07:33;95148.48;;;20.39;86.10
76990;BME280;65924;47.250;11.332;2023-07-13T17:17:37;95146.58;;;20.39;85.98
76990;BME280;65924;47.250;11.332;2023-07-13T17:27:42;95152.81;;;20.39;86.05
76990;BME280;65924;47.250;11.332;2023-07-13T17:37:43;95158.60;;;20.38;86.05
76990;BME280;65924;47.250;11.332;2023-07-13T17:47:45;95168.14;;;20.36;85.92
76990;BME280;65924;47.250;11.332;2023-07-13T17:57:48;95181.05;;;20.31;85.26
76990;BME280;65924;47.250;11.332;2023-07-13T18:07:51;95179.50;;;20.21;84.34
76990;BME280;65924;47.250;11.332;2023-07-13T18:17:52;95182.93;;;20.13;84.82
76990;BME280;65924;47.250;11.332;2023-07-13T18:27:54;95195.23;;;20.03;83.64
76990;BME280;65924;47.250;11.332;2023-07-13T18:37:56;95191.58;;;19.91;84.17
76990;BME280;65924;47.250;11.332;2023-07-13T18:47:58;95189.91;;;19.81;84.20
76990;BME280;65924;47.250;11.332;2023-07-13T18:57:59;95194.27;;;19.73;84.08
76990;BME280;65924;47.250;11.332;2023-07-13T19:08:01;95204.92;;;19.66;84.41
76990;BME280;65924;47.250;11.332;2023-07-13T19:18:13;95209.63;;;19.58;85.24
76990;BME280;65924;47.250;11.332;2023-07-13T19:28:24;95231.98;;;19.61;85.09
76990;BME280;65924;47.250;11.332;2023-07-13T19:38:26;95248.30;;;19.61;85.08
76990;BME280;65924;47.250;11.332;2023-07-13T19:48:27;95263.70;;;19.63;85.51
76990;BME280;65924;47.250;11.332;2023-07-13T19:58:28;95279.11;;;19.64;85.11
76990;BME280;65924;47.250;11.332;2023-07-13T20:08:29;95285.67;;;19.60;84.53
76990;BME280;65924;47.250;11.332;2023-07-13T20:18:31;95296.03;;;19.52;84.32
76990;BME280;65924;47.250;11.332;2023-07-13T20:28:32;95321.08;;;19.44;83.98
76990;BME280;65924;47.250;11.332;2023-07-13T20:38:33;95331.08;;;19.36;84.78
76990;BME280;65924;47.250;11.332;2023-07-13T20:48:38;95347.61;;;19.31;84.77
76990;BME280;65924;47.250;11.332;2023-07-13T20:58:40;95356.95;;;19.27;84.09
76990;BME280;65924;47.250;11.332;2023-07-13T21:08:42;95365.15;;;19.22;83.78
76990;BME280;65924;47.250;11.332;2023-07-13T21:18:43;95363.85;;;19.23;83.54
76990;BME280;65924;47.250;11.332;2023-07-13T21:28:45;95362.13;;;19.35;82.98
76990;BME280;65924;47.250;11.332;2023-07-13T21:38:48;95361.37;;;19.54;82.43
76990;BME280;65924;47.250;11.332;2023-07-13T21:48:52;95365.99;;;19.66;82.05
76990;BME280;65924;47.250;11.332;2023-07-13T21:58:53;95373.10;;;19.75;81.26
76990;BME280;65924;47.250;11.332;2023-07-13T22:08:54;95372.81;;;19.79;80.63
76990;BME280;65924;47.250;11.332;2023-07-13T22:19:00;95369.08;;;19.76;79.63
76990;BME280;65924;47.250;11.332;2023-07-13T22:29:17;95366.56;;;19.69;79.83
76990;BME280;65924;47.250;11.332;2023-07-13T22:39:24;95355.98;;;19.64;79.99
76990;BME280;65924;47.250;11.332;2023-07-13T22:49:28;95358.11;;;19.62;80.01
76990;BME280;65924;47.250;11.332;2023-07-13T22:59:30;95356.45;;;19.65;80.32
76990;BME280;65924;47.250;11.332;2023-07-13T23:09:31;95354.20;;;19.69;80.45
76990;BME280;65924;47.250;11.332;2023-07-13T23:19:34;95352.40;;;19.73;80.51
76990;BME280;65924;47.250;11.332;2023-07-13T23:29:35;95348.04;;;19.76;80.38
76990;BME280;65924;47.250;11.332;2023-07-13T23:39:36;95355.84;;;19.80;80.02
76990;BME280;65924;47.250;11.332;2023-07-13T23:49:36;95354.27;;;19.80;80.09
76990;BME280;65924;47.250;11.332;2023-07-13T23:59:37;95354.88;;;19.80;79.95
